Home   Weather   Norway   Vennesla   Past weeks
Flag for Norway

Past Weather in Vennesla, Norway — Yesterday and Last 2 Weeks

Currently: 46 °F. Passing clouds. (Weather station: Kristiansand / Kjevik, Norway). See more current weather

Past Weather in Vennesla — Graph

°F

Vennesla Temperature Yesterday

Maximum temperature yesterday: 54 °F (at 2:50 pm)
Minimum temperature yesterday: 39 °F (at 5:20 am)
Average temperature yesterday: 47 °F

High & Low Weather Summary for the Past Weeks

 TemperatureHumidityPressure
High63 °F (Apr 18, 1:50 pm)93% (Apr 8, 4:20 pm)30.54 "Hg (Apr 8, 4:20 pm)
Low27 °F (Apr 11, 1:50 am)23% (Apr 18, 12:50 pm)29.27 "Hg (Apr 9, 5:50 am)
Average43 °F58%30.09 "Hg
* Reported Apr 8 8:20 am — Apr 23 8:50 am, Vennesla. Weather by CustomWeather, © 2021

Note: Actual official high and low records may vary slightly from our data, if they occured in-between our weather recording intervals... More about our weather records

Vennesla Weather History for the Previous 24 Hours

Scroll right to see more
 ConditionsComfort  
Time TempWeatherWind HumidityBarometerVisibility
8:50 am
Fri, Apr 23
43 °FPassing clouds.6 mph57%30.24 "HgN/A
8:20 am43 °FSunny.9 mph53%30.24 "Hg10 mi
7:50 am43 °FPassing clouds.6 mph53%30.24 "HgN/A
7:20 am43 °FSunny.2 mph53%30.24 "Hg10 mi
6:50 am41 °FSunny.7 mph53%30.24 "Hg10 mi
5:50 am41 °FClear.8 mph53%30.21 "Hg10 mi
5:20 am39 °FPassing clouds.9 mph56%30.21 "HgN/A
4:50 am41 °FQuite cool.13 mph49%30.21 "HgN/A
4:20 am41 °FQuite cool.14 mph49%30.21 "HgN/A
3:50 am41 °FQuite cool.14 mph49%30.18 "HgN/A
3:20 am41 °FQuite cool.13 mph45%30.18 "HgN/A
2:50 am41 °FQuite cool.12 mph45%30.18 "HgN/A
2:20 am41 °FQuite cool.8 mph42%30.18 "HgN/A
1:50 am41 °FQuite cool.6 mph42%30.18 "HgN/A
1:20 am41 °FQuite cool.7 mph39%30.18 "HgN/A
12:50 am43 °FQuite cool.14 mph36%30.15 "HgN/A
12:20 am43 °FQuite cool.13 mph36%30.15 "HgN/A
11:50 pm
Thu, Apr 22
43 °FQuite cool.9 mph36%30.15 "HgN/A
11:20 pm43 °FQuite cool.12 mph36%30.15 "HgN/A
10:50 pm45 °FQuite cool.12 mph34%30.12 "HgN/A
10:20 pm45 °FQuite cool.6 mph37%30.12 "HgN/A
9:50 pm46 °FCool.9 mph34%30.12 "HgN/A
9:20 pm46 °FCool.9 mph34%30.12 "HgN/A
8:50 pm46 °FPassing clouds.8 mph40%30.09 "HgN/A
8:20 pm48 °FPassing clouds.14 mph34%30.09 "HgN/A
7:50 pm50 °FSunny.17 mph32%30.07 "Hg10 mi
7:20 pm50 °FSunny.12 mph32%30.07 "Hg10 mi
6:50 pm52 °FPassing clouds.15 mph28%30.07 "HgN/A
6:20 pm52 °FPassing clouds.15 mph28%30.04 "HgN/A
5:50 pm52 °FPassing clouds.14 mph30%30.04 "HgN/A
5:20 pm54 °FPassing clouds.15 mph26%30.04 "HgN/A
4:50 pm54 °FPassing clouds.16 mph26%30.04 "HgN/A
4:20 pm52 °FPassing clouds.18 mph30%30.01 "HgN/A
3:50 pm54 °FPassing clouds.14 mph28%30.01 "HgN/A
3:20 pm52 °FPassing clouds.16 mph30%30.01 "HgN/A
2:50 pm54 °FPassing clouds.14 mph28%30.01 "HgN/A
2:20 pm52 °FPassing clouds.16 mph32%30.01 "HgN/A
1:50 pm52 °FPassing clouds.16 mph30%30.01 "HgN/A
1:20 pm52 °FPassing clouds.15 mph30%30.01 "HgN/A
12:50 pm52 °FPassing clouds.15 mph30%30.01 "HgN/A
11:50 am50 °FPassing clouds.12 mph32%30.01 "HgN/A
11:20 am50 °FPassing clouds.13 mph32%30.01 "HgN/A
10:50 am48 °FPassing clouds.17 mph37%30.01 "HgN/A
10:20 am48 °FPassing clouds.12 mph37%30.01 "HgN/A
9:50 am48 °FSunny.13 mph37%30.01 "Hg10 mi
9:20 am46 °FPassing clouds.10 mph43%30.01 "HgN/A
Weather by CustomWeather, © 2021

See weather overview